sensor_id;sensor_type;location;lat;lon;timestamp;P1;durP1;ratioP1;P2;durP2;ratioP2
50900;SDS011;36879;51.416;6.678;2023-05-10T00:01:25;58.90;;;23.27;;
50900;SDS011;36879;51.416;6.678;2023-05-10T00:03:51;67.32;;;25.38;;
50900;SDS011;36879;51.416;6.678;2023-05-10T00:06:17;73.40;;;25.55;;
50900;SDS011;36879;51.416;6.678;2023-05-10T00:08:43;54.40;;;21.05;;
50900;SDS011;36879;51.416;6.678;2023-05-10T00:11:09;65.90;;;22.50;;
50900;SDS011;36879;51.416;6.678;2023-05-10T00:13:35;53.00;;;20.83;;
50900;SDS011;36879;51.416;6.678;2023-05-10T00:16:01;67.57;;;23.13;;
50900;SDS011;36879;51.416;6.678;2023-05-10T00:18:27;52.90;;;21.17;;
50900;SDS011;36879;51.416;6.678;2023-05-10T00:20:53;62.30;;;22.15;;
50900;SDS011;36879;51.416;6.678;2023-05-10T00:23:19;62.28;;;21.92;;
50900;SDS011;36879;51.416;6.678;2023-05-10T00:25:45;62.22;;;20.27;;
50900;SDS011;36879;51.416;6.678;2023-05-10T00:28:11;54.05;;;21.05;;
50900;SDS011;36879;51.416;6.678;2023-05-10T00:30:37;62.20;;;22.50;;
50900;SDS011;36879;51.416;6.678;2023-05-10T00:33:03;69.10;;;24.42;;
50900;SDS011;36879;51.416;6.678;2023-05-10T00:35:29;68.25;;;25.90;;
50900;SDS011;36879;51.416;6.678;2023-05-10T00:37:55;74.25;;;27.45;;
50900;SDS011;36879;51.416;6.678;2023-05-10T00:40:21;82.40;;;27.67;;
50900;SDS011;36879;51.416;6.678;2023-05-10T00:42:47;72.10;;;26.02;;
50900;SDS011;36879;51.416;6.678;2023-05-10T00:45:13;62.85;;;26.80;;
50900;SDS011;36879;51.416;6.678;2023-05-10T00:47:39;79.43;;;28.13;;
50900;SDS011;36879;51.416;6.678;2023-05-10T00:50:05;74.38;;;26.42;;
50900;SDS011;36879;51.416;6.678;2023-05-10T00:52:31;79.63;;;27.02;;
50900;SDS011;36879;51.416;6.678;2023-05-10T00:54:57;93.25;;;28.30;;
50900;SDS011;36879;51.416;6.678;2023-05-10T00:57:24;89.35;;;28.60;;
50900;SDS011;36879;51.416;6.678;2023-05-10T00:59:50;71.25;;;26.30;;
50900;SDS011;36879;51.416;6.678;2023-05-10T01:02:16;97.05;;;29.75;;
50900;SDS011;36879;51.416;6.678;2023-05-10T01:04:42;81.57;;;28.85;;
50900;SDS011;36879;51.416;6.678;2023-05-10T01:07:08;92.20;;;29.88;;
50900;SDS011;36879;51.416;6.678;2023-05-10T01:09:35;103.28;;;32.38;;
50900;SDS011;36879;51.416;6.678;2023-05-10T01:12:01;96.10;;;33.00;;
50900;SDS011;36879;51.416;6.678;2023-05-10T01:14:28;111.28;;;33.70;;
50900;SDS011;36879;51.416;6.678;2023-05-10T01:16:54;86.45;;;31.27;;
50900;SDS011;36879;51.416;6.678;2023-05-10T01:19:24;86.18;;;31.10;;
50900;SDS011;36879;51.416;6.678;2023-05-10T01:27:26;70.93;;;27.65;;
50900;SDS011;36879;51.416;6.678;2023-05-10T01:32:30;86.15;;;28.70;;
50900;SDS011;36879;51.416;6.678;2023-05-10T01:39:55;96.90;;;29.73;;
50900;SDS011;36879;51.416;6.678;2023-05-10T01:42:26;94.75;;;31.02;;
50900;SDS011;36879;51.416;6.678;2023-05-10T01:45:02;99.22;;;32.65;;
50900;SDS011;36879;51.416;6.678;2023-05-10T01:49:59;140.25;;;34.08;;
50900;SDS011;36879;51.416;6.678;2023-05-10T01:52:30;99.90;;;32.60;;
50900;SDS011;36879;51.416;6.678;2023-05-10T01:55:08;123.32;;;35.50;;
50900;SDS011;36879;51.416;6.678;2023-05-10T01:57:35;113.90;;;33.35;;
50900;SDS011;36879;51.416;6.678;2023-05-10T02:00:02;109.15;;;32.58;;
50900;SDS011;36879;51.416;6.678;2023-05-10T02:02:29;125.78;;;35.35;;
50900;SDS011;36879;51.416;6.678;2023-05-10T02:04:56;129.68;;;35.50;;
50900;SDS011;36879;51.416;6.678;2023-05-10T02:07:23;106.35;;;32.75;;
50900;SDS011;36879;51.416;6.678;2023-05-10T02:09:49;79.55;;;27.73;;
50900;SDS011;36879;51.416;6.678;2023-05-10T02:12:16;92.20;;;30.63;;
50900;SDS011;36879;51.416;6.678;2023-05-10T02:14:43;89.53;;;31.30;;
50900;SDS011;36879;51.416;6.678;2023-05-10T02:17:09;94.72;;;31.05;;
50900;SDS011;36879;51.416;6.678;2023-05-10T02:19:37;93.32;;;30.05;;
50900;SDS011;36879;51.416;6.678;2023-05-10T02:22:04;100.75;;;29.73;;
50900;SDS011;36879;51.416;6.678;2023-05-10T02:24:30;87.97;;;29.10;;
50900;SDS011;36879;51.416;6.678;2023-05-10T02:26:57;87.75;;;30.42;;
50900;SDS011;36879;51.416;6.678;2023-05-10T02:29:24;85.88;;;28.48;;
50900;SDS011;36879;51.416;6.678;2023-05-10T02:31:51;93.25;;;28.52;;
50900;SDS011;36879;51.416;6.678;2023-05-10T02:34:18;100.90;;;29.55;;
50900;SDS011;36879;51.416;6.678;2023-05-10T02:36:45;119.57;;;30.40;;
50900;SDS011;36879;51.416;6.678;2023-05-10T02:39:11;83.35;;;27.98;;
50900;SDS011;36879;51.416;6.678;2023-05-10T02:41:39;97.40;;;28.90;;
50900;SDS011;36879;51.416;6.678;2023-05-10T02:44:06;101.80;;;29.00;;
50900;SDS011;36879;51.416;6.678;2023-05-10T02:46:33;107.70;;;31.35;;
50900;SDS011;36879;51.416;6.678;2023-05-10T02:48:59;101.18;;;28.45;;
50900;SDS011;36879;51.416;6.678;2023-05-10T02:51:27;89.13;;;27.80;;
50900;SDS011;36879;51.416;6.678;2023-05-10T02:53:53;90.10;;;27.58;;
50900;SDS011;36879;51.416;6.678;2023-05-10T02:56:25;88.50;;;28.02;;
50900;SDS011;36879;51.416;6.678;2023-05-10T02:58:54;98.47;;;28.63;;
50900;SDS011;36879;51.416;6.678;2023-05-10T03:01:20;77.45;;;25.08;;
50900;SDS011;36879;51.416;6.678;2023-05-10T03:03:46;92.70;;;26.30;;
50900;SDS011;36879;51.416;6.678;2023-05-10T03:06:12;73.03;;;24.40;;
50900;SDS011;36879;51.416;6.678;2023-05-10T03:08:39;95.30;;;27.60;;
50900;SDS011;36879;51.416;6.678;2023-05-10T03:14:10;80.53;;;26.27;;
50900;SDS011;36879;51.416;6.678;2023-05-10T03:16:47;94.95;;;28.23;;
50900;SDS011;36879;51.416;6.678;2023-05-10T03:21:43;95.57;;;26.45;;
50900;SDS011;36879;51.416;6.678;2023-05-10T03:24:13;74.07;;;24.15;;
50900;SDS011;36879;51.416;6.678;2023-05-10T03:26:40;82.38;;;25.98;;
50900;SDS011;36879;51.416;6.678;2023-05-10T03:29:10;93.80;;;28.75;;
50900;SDS011;36879;51.416;6.678;2023-05-10T03:31:37;88.95;;;27.45;;
50900;SDS011;36879;51.416;6.678;2023-05-10T03:34:03;84.22;;;26.83;;
50900;SDS011;36879;51.416;6.678;2023-05-10T03:36:30;89.53;;;28.17;;
50900;SDS011;36879;51.416;6.678;2023-05-10T03:38:56;83.07;;;28.10;;
50900;SDS011;36879;51.416;6.678;2023-05-10T03:41:21;105.05;;;30.45;;
50900;SDS011;36879;51.416;6.678;2023-05-10T03:43:47;121.25;;;31.05;;
50900;SDS011;36879;51.416;6.678;2023-05-10T03:46:13;95.18;;;29.05;;
50900;SDS011;36879;51.416;6.678;2023-05-10T03:48:39;94.97;;;30.73;;
50900;SDS011;36879;51.416;6.678;2023-05-10T03:51:05;91.45;;;28.38;;
50900;SDS011;36879;51.416;6.678;2023-05-10T03:53:31;69.15;;;25.25;;
50900;SDS011;36879;51.416;6.678;2023-05-10T03:55:57;92.75;;;28.83;;
50900;SDS011;36879;51.416;6.678;2023-05-10T03:58:23;96.10;;;29.73;;
50900;SDS011;36879;51.416;6.678;2023-05-10T04:00:50;81.90;;;27.30;;
50900;SDS011;36879;51.416;6.678;2023-05-10T04:03:16;94.55;;;29.80;;
50900;SDS011;36879;51.416;6.678;2023-05-10T04:05:42;93.68;;;29.92;;
50900;SDS011;36879;51.416;6.678;2023-05-10T04:08:08;98.72;;;32.03;;
50900;SDS011;36879;51.416;6.678;2023-05-10T04:10:34;85.47;;;30.77;;
50900;SDS011;36879;51.416;6.678;2023-05-10T04:13:00;103.80;;;33.67;;
50900;SDS011;36879;51.416;6.678;2023-05-10T04:15:26;91.57;;;32.40;;
50900;SDS011;36879;51.416;6.678;2023-05-10T04:17:52;96.65;;;31.88;;
50900;SDS011;36879;51.416;6.678;2023-05-10T04:20:18;118.00;;;36.00;;
50900;SDS011;36879;51.416;6.678;2023-05-10T04:22:44;126.32;;;33.60;;
50900;SDS011;36879;51.416;6.678;2023-05-10T04:25:10;106.32;;;35.08;;
50900;SDS011;36879;51.416;6.678;2023-05-10T04:27:36;100.68;;;32.80;;
50900;SDS011;36879;51.416;6.678;2023-05-10T04:30:02;118.97;;;36.83;;
50900;SDS011;36879;51.416;6.678;2023-05-10T04:32:29;117.85;;;36.88;;
50900;SDS011;36879;51.416;6.678;2023-05-10T04:34:55;144.07;;;38.35;;
50900;SDS011;36879;51.416;6.678;2023-05-10T04:37:21;108.18;;;37.17;;
50900;SDS011;36879;51.416;6.678;2023-05-10T04:39:47;107.90;;;36.67;;
50900;SDS011;36879;51.416;6.678;2023-05-10T04:42:13;103.75;;;37.25;;
50900;SDS011;36879;51.416;6.678;2023-05-10T04:44:40;112.72;;;38.25;;
50900;SDS011;36879;51.416;6.678;2023-05-10T04:47:06;123.05;;;37.65;;
50900;SDS011;36879;51.416;6.678;2023-05-10T04:49:32;142.63;;;40.72;;
50900;SDS011;36879;51.416;6.678;2023-05-10T04:51:58;116.28;;;37.42;;
50900;SDS011;36879;51.416;6.678;2023-05-10T04:54:24;134.90;;;38.35;;
50900;SDS011;36879;51.416;6.678;2023-05-10T04:56:50;120.50;;;37.08;;
50900;SDS011;36879;51.416;6.678;2023-05-10T04:59:16;120.03;;;38.88;;
50900;SDS011;36879;51.416;6.678;2023-05-10T05:01:42;144.52;;;42.40;;
50900;SDS011;36879;51.416;6.678;2023-05-10T05:04:08;131.10;;;38.90;;
50900;SDS011;36879;51.416;6.678;2023-05-10T05:06:34;119.57;;;41.10;;
50900;SDS011;36879;51.416;6.678;2023-05-10T05:09:00;144.63;;;40.58;;
50900;SDS011;36879;51.416;6.678;2023-05-10T05:11:26;136.45;;;43.03;;
50900;SDS011;36879;51.416;6.678;2023-05-10T05:13:52;144.63;;;42.08;;
50900;SDS011;36879;51.416;6.678;2023-05-10T05:16:18;134.85;;;40.97;;
50900;SDS011;36879;51.416;6.678;2023-05-10T05:18:44;135.32;;;43.55;;
50900;SDS011;36879;51.416;6.678;2023-05-10T05:21:14;113.75;;;40.67;;
50900;SDS011;36879;51.416;6.678;2023-05-10T05:23:41;134.25;;;41.65;;
50900;SDS011;36879;51.416;6.678;2023-05-10T05:26:07;132.82;;;45.08;;
50900;SDS011;36879;51.416;6.678;2023-05-10T05:28:33;119.40;;;40.67;;
50900;SDS011;36879;51.416;6.678;2023-05-10T05:31:02;130.68;;;41.88;;
50900;SDS011;36879;51.416;6.678;2023-05-10T05:33:28;147.45;;;43.70;;
50900;SDS011;36879;51.416;6.678;2023-05-10T05:35:54;137.70;;;44.95;;
50900;SDS011;36879;51.416;6.678;2023-05-10T05:38:20;141.77;;;45.78;;
50900;SDS011;36879;51.416;6.678;2023-05-10T05:40:46;131.18;;;42.25;;
50900;SDS011;36879;51.416;6.678;2023-05-10T05:43:12;134.40;;;45.10;;
50900;SDS011;36879;51.416;6.678;2023-05-10T05:45:38;149.20;;;46.08;;
50900;SDS011;36879;51.416;6.678;2023-05-10T05:48:04;126.82;;;46.42;;
50900;SDS011;36879;51.416;6.678;2023-05-10T05:50:30;131.95;;;47.15;;
50900;SDS011;36879;51.416;6.678;2023-05-10T05:52:56;149.85;;;49.35;;
50900;SDS011;36879;51.416;6.678;2023-05-10T05:55:22;141.55;;;45.97;;
50900;SDS011;36879;51.416;6.678;2023-05-10T05:57:49;154.43;;;46.28;;
50900;SDS011;36879;51.416;6.678;2023-05-10T06:00:15;139.65;;;48.85;;
50900;SDS011;36879;51.416;6.678;2023-05-10T06:02:41;144.25;;;48.03;;
50900;SDS011;36879;51.416;6.678;2023-05-10T06:05:08;147.77;;;49.65;;
50900;SDS011;36879;51.416;6.678;2023-05-10T06:07:34;153.40;;;50.05;;
50900;SDS011;36879;51.416;6.678;2023-05-10T06:10:00;139.45;;;45.83;;
50900;SDS011;36879;51.416;6.678;2023-05-10T06:12:26;146.18;;;50.63;;
50900;SDS011;36879;51.416;6.678;2023-05-10T06:14:52;139.77;;;48.15;;
50900;SDS011;36879;51.416;6.678;2023-05-10T06:17:18;152.55;;;52.00;;
50900;SDS011;36879;51.416;6.678;2023-05-10T06:19:44;147.32;;;49.30;;
50900;SDS011;36879;51.416;6.678;2023-05-10T06:22:09;162.63;;;48.28;;
50900;SDS011;36879;51.416;6.678;2023-05-10T06:24:35;151.07;;;48.40;;
50900;SDS011;36879;51.416;6.678;2023-05-10T06:27:01;157.38;;;48.88;;
50900;SDS011;36879;51.416;6.678;2023-05-10T06:29:29;141.00;;;48.65;;
50900;SDS011;36879;51.416;6.678;2023-05-10T06:31:55;137.57;;;47.85;;
50900;SDS011;36879;51.416;6.678;2023-05-10T06:34:20;141.80;;;50.08;;
50900;SDS011;36879;51.416;6.678;2023-05-10T06:36:46;150.27;;;49.22;;
50900;SDS011;36879;51.416;6.678;2023-05-10T06:39:12;127.80;;;45.40;;
50900;SDS011;36879;51.416;6.678;2023-05-10T06:41:41;138.15;;;47.10;;
50900;SDS011;36879;51.416;6.678;2023-05-10T06:44:07;134.02;;;43.85;;
50900;SDS011;36879;51.416;6.678;2023-05-10T06:46:33;137.05;;;47.15;;
50900;SDS011;36879;51.416;6.678;2023-05-10T06:48:59;132.38;;;45.25;;
50900;SDS011;36879;51.416;6.678;2023-05-10T06:51:25;123.18;;;42.03;;
50900;SDS011;36879;51.416;6.678;2023-05-10T06:53:51;142.77;;;47.65;;
50900;SDS011;36879;51.416;6.678;2023-05-10T06:56:17;133.85;;;45.30;;
50900;SDS011;36879;51.416;6.678;2023-05-10T06:58:46;137.93;;;47.03;;
50900;SDS011;36879;51.416;6.678;2023-05-10T07:01:12;131.90;;;43.25;;
50900;SDS011;36879;51.416;6.678;2023-05-10T07:03:38;136.85;;;46.05;;
50900;SDS011;36879;51.416;6.678;2023-05-10T07:06:04;130.95;;;43.95;;
50900;SDS011;36879;51.416;6.678;2023-05-10T07:08:31;130.65;;;45.65;;
50900;SDS011;36879;51.416;6.678;2023-05-10T07:11:01;124.90;;;43.53;;
50900;SDS011;36879;51.416;6.678;2023-05-10T07:13:28;113.95;;;42.22;;
50900;SDS011;36879;51.416;6.678;2023-05-10T07:15:54;123.60;;;41.75;;
50900;SDS011;36879;51.416;6.678;2023-05-10T07:18:20;117.43;;;44.17;;
50900;SDS011;36879;51.416;6.678;2023-05-10T07:20:46;117.55;;;38.90;;
50900;SDS011;36879;51.416;6.678;2023-05-10T07:23:12;111.15;;;39.25;;
50900;SDS011;36879;51.416;6.678;2023-05-10T07:25:38;128.63;;;43.65;;
50900;SDS011;36879;51.416;6.678;2023-05-10T07:28:04;119.55;;;41.95;;
50900;SDS011;36879;51.416;6.678;2023-05-10T07:30:30;97.28;;;37.78;;
50900;SDS011;36879;51.416;6.678;2023-05-10T07:32:56;93.60;;;37.45;;
50900;SDS011;36879;51.416;6.678;2023-05-10T07:35:22;106.10;;;38.25;;
50900;SDS011;36879;51.416;6.678;2023-05-10T07:37:48;98.47;;;35.72;;
50900;SDS011;36879;51.416;6.678;2023-05-10T07:40:14;97.00;;;35.75;;
50900;SDS011;36879;51.416;6.678;2023-05-10T07:42:40;102.57;;;38.92;;
50900;SDS011;36879;51.416;6.678;2023-05-10T07:45:06;98.63;;;37.28;;
50900;SDS011;36879;51.416;6.678;2023-05-10T07:47:32;99.55;;;39.92;;
50900;SDS011;36879;51.416;6.678;2023-05-10T07:49:58;100.15;;;40.33;;
50900;SDS011;36879;51.416;6.678;2023-05-10T07:52:24;103.20;;;39.63;;
50900;SDS011;36879;51.416;6.678;2023-05-10T07:54:50;96.40;;;38.53;;
50900;SDS011;36879;51.416;6.678;2023-05-10T07:57:17;95.03;;;37.45;;
50900;SDS011;36879;51.416;6.678;2023-05-10T07:59:43;97.53;;;37.15;;
50900;SDS011;36879;51.416;6.678;2023-05-10T08:02:10;83.53;;;35.45;;
50900;SDS011;36879;51.416;6.678;2023-05-10T08:04:36;69.55;;;30.15;;
50900;SDS011;36879;51.416;6.678;2023-05-10T08:07:02;68.97;;;29.50;;
50900;SDS011;36879;51.416;6.678;2023-05-10T08:09:28;60.60;;;28.55;;
50900;SDS011;36879;51.416;6.678;2023-05-10T08:11:54;58.22;;;27.77;;
50900;SDS011;36879;51.416;6.678;2023-05-10T08:14:20;55.95;;;27.02;;
50900;SDS011;36879;51.416;6.678;2023-05-10T08:16:46;50.58;;;25.30;;
50900;SDS011;36879;51.416;6.678;2023-05-10T08:19:12;47.47;;;24.52;;
50900;SDS011;36879;51.416;6.678;2023-05-10T08:21:38;46.42;;;24.38;;
50900;SDS011;36879;51.416;6.678;2023-05-10T08:24:07;49.72;;;24.77;;
50900;SDS011;36879;51.416;6.678;2023-05-10T08:26:33;45.85;;;24.23;;
50900;SDS011;36879;51.416;6.678;2023-05-10T08:28:59;39.58;;;23.33;;
50900;SDS011;36879;51.416;6.678;2023-05-10T08:31:25;43.72;;;22.30;;
50900;SDS011;36879;51.416;6.678;2023-05-10T08:33:51;38.47;;;21.02;;
50900;SDS011;36879;51.416;6.678;2023-05-10T08:36:17;41.88;;;22.27;;
50900;SDS011;36879;51.416;6.678;2023-05-10T08:38:46;37.45;;;19.90;;
50900;SDS011;36879;51.416;6.678;2023-05-10T08:41:13;38.17;;;20.65;;
50900;SDS011;36879;51.416;6.678;2023-05-10T08:43:39;34.15;;;20.92;;
50900;SDS011;36879;51.416;6.678;2023-05-10T08:46:06;34.50;;;21.27;;
50900;SDS011;36879;51.416;6.678;2023-05-10T08:48:34;39.42;;;20.75;;
50900;SDS011;36879;51.416;6.678;2023-05-10T08:51:00;35.97;;;21.27;;
50900;SDS011;36879;51.416;6.678;2023-05-10T08:53:27;38.80;;;22.17;;
50900;SDS011;36879;51.416;6.678;2023-05-10T08:55:54;37.67;;;19.60;;
50900;SDS011;36879;51.416;6.678;2023-05-10T08:58:21;36.10;;;20.20;;
50900;SDS011;36879;51.416;6.678;2023-05-10T09:00:48;30.42;;;16.63;;
50900;SDS011;36879;51.416;6.678;2023-05-10T09:03:15;27.73;;;16.33;;
50900;SDS011;36879;51.416;6.678;2023-05-10T09:05:42;32.50;;;17.83;;
50900;SDS011;36879;51.416;6.678;2023-05-10T09:08:09;25.25;;;16.25;;
50900;SDS011;36879;51.416;6.678;2023-05-10T09:10:44;26.60;;;15.30;;
50900;SDS011;36879;51.416;6.678;2023-05-10T09:13:12;23.73;;;14.65;;
50900;SDS011;36879;51.416;6.678;2023-05-10T09:15:39;24.33;;;14.93;;
50900;SDS011;36879;51.416;6.678;2023-05-10T09:18:05;25.90;;;15.32;;
50900;SDS011;36879;51.416;6.678;2023-05-10T09:20:31;26.38;;;16.17;;
50900;SDS011;36879;51.416;6.678;2023-05-10T09:22:56;23.63;;;14.98;;
50900;SDS011;36879;51.416;6.678;2023-05-10T09:25:22;29.92;;;15.50;;
50900;SDS011;36879;51.416;6.678;2023-05-10T09:27:49;27.15;;;15.27;;
50900;SDS011;36879;51.416;6.678;2023-05-10T09:30:16;24.23;;;14.57;;
50900;SDS011;36879;51.416;6.678;2023-05-10T09:32:44;24.80;;;15.00;;
50900;SDS011;36879;51.416;6.678;2023-05-10T09:35:10;25.95;;;16.17;;
50900;SDS011;36879;51.416;6.678;2023-05-10T09:37:40;28.83;;;17.30;;
50900;SDS011;36879;51.416;6.678;2023-05-10T09:40:07;28.27;;;15.95;;
50900;SDS011;36879;51.416;6.678;2023-05-10T09:42:34;27.42;;;16.23;;
50900;SDS011;36879;51.416;6.678;2023-05-10T09:45:03;24.13;;;14.35;;
50900;SDS011;36879;51.416;6.678;2023-05-10T09:47:33;26.30;;;15.70;;
50900;SDS011;36879;51.416;6.678;2023-05-10T09:49:59;27.60;;;15.18;;
50900;SDS011;36879;51.416;6.678;2023-05-10T09:55:14;26.73;;;16.90;;
50900;SDS011;36879;51.416;6.678;2023-05-10T09:57:40;27.02;;;15.77;;
50900;SDS011;36879;51.416;6.678;2023-05-10T10:00:07;29.13;;;16.45;;
50900;SDS011;36879;51.416;6.678;2023-05-10T10:02:35;27.65;;;15.70;;
50900;SDS011;36879;51.416;6.678;2023-05-10T10:05:01;28.23;;;15.63;;
50900;SDS011;36879;51.416;6.678;2023-05-10T10:07:30;25.92;;;14.57;;
50900;SDS011;36879;51.416;6.678;2023-05-10T10:09:56;25.85;;;16.23;;
50900;SDS011;36879;51.416;6.678;2023-05-10T10:12:23;23.65;;;14.95;;
50900;SDS011;36879;51.416;6.678;2023-05-10T10:14:49;25.45;;;14.90;;
50900;SDS011;36879;51.416;6.678;2023-05-10T10:17:15;23.95;;;14.77;;
50900;SDS011;36879;51.416;6.678;2023-05-10T10:19:42;23.88;;;14.55;;
50900;SDS011;36879;51.416;6.678;2023-05-10T10:22:08;25.35;;;15.35;;
50900;SDS011;36879;51.416;6.678;2023-05-10T10:24:36;24.52;;;14.95;;
50900;SDS011;36879;51.416;6.678;2023-05-10T10:34:59;30.33;;;16.77;;
50900;SDS011;36879;51.416;6.678;2023-05-10T10:37:40;32.90;;;20.52;;
50900;SDS011;36879;51.416;6.678;2023-05-10T10:40:40;33.33;;;21.02;;
50900;SDS011;36879;51.416;6.678;2023-05-10T10:45:43;36.80;;;20.65;;
50900;SDS011;36879;51.416;6.678;2023-05-10T10:48:22;37.53;;;21.08;;
50900;SDS011;36879;51.416;6.678;2023-05-10T10:50:55;44.38;;;22.42;;
50900;SDS011;36879;51.416;6.678;2023-05-10T10:53:21;38.60;;;21.70;;
50900;SDS011;36879;51.416;6.678;2023-05-10T10:55:48;36.60;;;21.92;;
50900;SDS011;36879;51.416;6.678;2023-05-10T10:58:29;36.17;;;21.75;;
50900;SDS011;36879;51.416;6.678;2023-05-10T11:01:12;31.60;;;19.37;;
50900;SDS011;36879;51.416;6.678;2023-05-10T11:03:38;26.25;;;17.02;;
50900;SDS011;36879;51.416;6.678;2023-05-10T11:06:04;23.40;;;13.60;;
50900;SDS011;36879;51.416;6.678;2023-05-10T11:08:31;21.08;;;14.15;;
50900;SDS011;36879;51.416;6.678;2023-05-10T11:13:28;21.20;;;13.65;;
50900;SDS011;36879;51.416;6.678;2023-05-10T11:15:55;20.33;;;12.43;;
50900;SDS011;36879;51.416;6.678;2023-05-10T11:18:28;20.05;;;13.07;;
50900;SDS011;36879;51.416;6.678;2023-05-10T11:20:58;18.10;;;12.38;;
50900;SDS011;36879;51.416;6.678;2023-05-10T11:26:09;19.17;;;12.13;;
50900;SDS011;36879;51.416;6.678;2023-05-10T11:28:42;16.50;;;10.23;;
50900;SDS011;36879;51.416;6.678;2023-05-10T11:31:09;13.32;;;9.15;;
50900;SDS011;36879;51.416;6.678;2023-05-10T11:33:48;13.93;;;9.55;;
50900;SDS011;36879;51.416;6.678;2023-05-10T11:36:14;12.60;;;9.07;;
50900;SDS011;36879;51.416;6.678;2023-05-10T11:38:41;14.20;;;7.97;;
50900;SDS011;36879;51.416;6.678;2023-05-10T11:41:10;12.02;;;8.27;;
50900;SDS011;36879;51.416;6.678;2023-05-10T11:43:37;12.52;;;8.93;;
50900;SDS011;36879;51.416;6.678;2023-05-10T11:46:07;11.82;;;7.97;;
50900;SDS011;36879;51.416;6.678;2023-05-10T11:48:33;11.88;;;7.93;;
50900;SDS011;36879;51.416;6.678;2023-05-10T11:51:00;10.50;;;8.10;;
50900;SDS011;36879;51.416;6.678;2023-05-10T11:53:27;13.00;;;8.02;;
50900;SDS011;36879;51.416;6.678;2023-05-10T11:55:53;10.05;;;7.13;;
50900;SDS011;36879;51.416;6.678;2023-05-10T11:58:19;13.65;;;6.93;;
50900;SDS011;36879;51.416;6.678;2023-05-10T12:00:46;11.05;;;7.70;;
50900;SDS011;36879;51.416;6.678;2023-05-10T12:03:12;12.02;;;7.22;;
50900;SDS011;36879;51.416;6.678;2023-05-10T12:05:38;11.70;;;6.72;;
50900;SDS011;36879;51.416;6.678;2023-05-10T12:08:13;11.23;;;7.55;;
50900;SDS011;36879;51.416;6.678;2023-05-10T12:10:39;10.68;;;6.82;;
50900;SDS011;36879;51.416;6.678;2023-05-10T12:13:10;14.50;;;8.10;;
50900;SDS011;36879;51.416;6.678;2023-05-10T12:15:37;12.88;;;7.75;;
50900;SDS011;36879;51.416;6.678;2023-05-10T12:18:03;11.00;;;8.23;;
50900;SDS011;36879;51.416;6.678;2023-05-10T12:20:30;16.05;;;8.60;;
50900;SDS011;36879;51.416;6.678;2023-05-10T12:22:56;13.50;;;8.55;;
50900;SDS011;36879;51.416;6.678;2023-05-10T12:25:24;9.73;;;7.30;;
50900;SDS011;36879;51.416;6.678;2023-05-10T12:27:51;10.13;;;7.57;;
50900;SDS011;36879;51.416;6.678;2023-05-10T12:30:23;11.13;;;8.10;;
50900;SDS011;36879;51.416;6.678;2023-05-10T12:32:50;9.73;;;7.45;;
50900;SDS011;36879;51.416;6.678;2023-05-10T12:35:16;11.73;;;6.95;;
50900;SDS011;36879;51.416;6.678;2023-05-10T12:37:45;9.77;;;7.45;;
50900;SDS011;36879;51.416;6.678;2023-05-10T12:40:11;8.45;;;6.22;;
50900;SDS011;36879;51.416;6.678;2023-05-10T12:42:37;11.55;;;6.78;;
50900;SDS011;36879;51.416;6.678;2023-05-10T12:45:05;8.73;;;6.65;;
50900;SDS011;36879;51.416;6.678;2023-05-10T12:47:32;10.02;;;6.57;;
50900;SDS011;36879;51.416;6.678;2023-05-10T12:50:00;9.02;;;5.55;;
50900;SDS011;36879;51.416;6.678;2023-05-10T12:52:27;15.48;;;6.93;;
50900;SDS011;36879;51.416;6.678;2023-05-10T12:54:53;10.73;;;5.88;;
50900;SDS011;36879;51.416;6.678;2023-05-10T12:57:20;7.50;;;5.68;;
50900;SDS011;36879;51.416;6.678;2023-05-10T12:59:46;7.53;;;5.03;;
50900;SDS011;36879;51.416;6.678;2023-05-10T13:02:12;7.53;;;5.03;;
50900;SDS011;36879;51.416;6.678;2023-05-10T13:04:39;9.20;;;6.50;;
50900;SDS011;36879;51.416;6.678;2023-05-10T13:07:06;7.63;;;4.97;;
50900;SDS011;36879;51.416;6.678;2023-05-10T13:09:32;8.05;;;4.43;;
50900;SDS011;36879;51.416;6.678;2023-05-10T13:11:58;8.95;;;5.25;;
50900;SDS011;36879;51.416;6.678;2023-05-10T13:14:24;8.15;;;5.32;;
50900;SDS011;36879;51.416;6.678;2023-05-10T13:16:50;7.93;;;5.68;;
50900;SDS011;36879;51.416;6.678;2023-05-10T13:19:16;7.90;;;6.18;;
50900;SDS011;36879;51.416;6.678;2023-05-10T13:21:43;9.25;;;5.55;;
50900;SDS011;36879;51.416;6.678;2023-05-10T13:24:09;9.70;;;6.90;;
50900;SDS011;36879;51.416;6.678;2023-05-10T13:26:35;9.73;;;6.68;;
50900;SDS011;36879;51.416;6.678;2023-05-10T13:29:02;11.30;;;7.47;;
50900;SDS011;36879;51.416;6.678;2023-05-10T13:31:28;7.55;;;6.13;;
50900;SDS011;36879;51.416;6.678;2023-05-10T13:33:55;7.95;;;6.88;;
50900;SDS011;36879;51.416;6.678;2023-05-10T13:36:21;20.88;;;7.70;;
50900;SDS011;36879;51.416;6.678;2023-05-10T13:38:47;9.38;;;6.95;;
50900;SDS011;36879;51.416;6.678;2023-05-10T13:41:13;9.07;;;6.90;;
50900;SDS011;36879;51.416;6.678;2023-05-10T13:43:39;9.82;;;7.43;;
50900;SDS011;36879;51.416;6.678;2023-05-10T13:46:05;11.20;;;8.30;;
50900;SDS011;36879;51.416;6.678;2023-05-10T13:48:31;10.45;;;7.32;;
50900;SDS011;36879;51.416;6.678;2023-05-10T13:50:57;10.23;;;8.75;;
50900;SDS011;36879;51.416;6.678;2023-05-10T13:53:23;10.90;;;8.25;;
50900;SDS011;36879;51.416;6.678;2023-05-10T13:55:49;9.63;;;7.40;;
50900;SDS011;36879;51.416;6.678;2023-05-10T13:58:15;11.90;;;8.68;;
50900;SDS011;36879;51.416;6.678;2023-05-10T14:00:41;11.18;;;9.00;;
50900;SDS011;36879;51.416;6.678;2023-05-10T14:03:07;15.45;;;10.27;;
50900;SDS011;36879;51.416;6.678;2023-05-10T14:05:35;13.63;;;8.88;;
50900;SDS011;36879;51.416;6.678;2023-05-10T14:08:01;12.85;;;9.73;;
50900;SDS011;36879;51.416;6.678;2023-05-10T14:10:28;11.95;;;8.70;;
50900;SDS011;36879;51.416;6.678;2023-05-10T14:12:55;14.50;;;9.05;;
50900;SDS011;36879;51.416;6.678;2023-05-10T14:15:21;15.30;;;10.32;;
50900;SDS011;36879;51.416;6.678;2023-05-10T14:17:47;12.30;;;8.95;;
50900;SDS011;36879;51.416;6.678;2023-05-10T14:20:13;16.73;;;9.15;;
50900;SDS011;36879;51.416;6.678;2023-05-10T14:22:39;14.82;;;9.65;;
50900;SDS011;36879;51.416;6.678;2023-05-10T14:25:05;13.80;;;10.20;;
50900;SDS011;36879;51.416;6.678;2023-05-10T14:27:31;12.85;;;10.05;;
50900;SDS011;36879;51.416;6.678;2023-05-10T14:29:57;14.02;;;10.15;;
50900;SDS011;36879;51.416;6.678;2023-05-10T14:32:23;16.08;;;11.82;;
50900;SDS011;36879;51.416;6.678;2023-05-10T14:34:49;13.45;;;9.30;;
50900;SDS011;36879;51.416;6.678;2023-05-10T14:37:15;14.40;;;10.60;;
50900;SDS011;36879;51.416;6.678;2023-05-10T14:39:41;13.05;;;10.20;;
50900;SDS011;36879;51.416;6.678;2023-05-10T14:42:07;17.27;;;10.85;;
50900;SDS011;36879;51.416;6.678;2023-05-10T14:44:33;16.52;;;11.23;;
50900;SDS011;36879;51.416;6.678;2023-05-10T14:46:59;14.07;;;10.27;;
50900;SDS011;36879;51.416;6.678;2023-05-10T14:49:25;15.02;;;10.98;;
50900;SDS011;36879;51.416;6.678;2023-05-10T14:51:52;14.35;;;10.82;;
50900;SDS011;36879;51.416;6.678;2023-05-10T14:54:18;14.48;;;10.60;;
50900;SDS011;36879;51.416;6.678;2023-05-10T14:56:44;13.70;;;9.48;;
50900;SDS011;36879;51.416;6.678;2023-05-10T14:59:10;12.57;;;9.77;;